sensor_id;sensor_type;location;lat;lon;timestamp;P1;durP1;ratioP1;P2;durP2;ratioP2
55069;SDS011;40967;52.070;8.596;2022-09-21T00:01:15;0.75;;;0.43;;
55069;SDS011;40967;52.070;8.596;2022-09-21T00:03:44;1.20;;;0.60;;
55069;SDS011;40967;52.070;8.596;2022-09-21T00:06:21;1.02;;;0.52;;
55069;SDS011;40967;52.070;8.596;2022-09-21T00:09:01;1.20;;;0.70;;
55069;SDS011;40967;52.070;8.596;2022-09-21T00:11:36;1.35;;;0.60;;
55069;SDS011;40967;52.070;8.596;2022-09-21T00:14:30;0.80;;;0.47;;
55069;SDS011;40967;52.070;8.596;2022-09-21T00:17:12;1.08;;;0.47;;
55069;SDS011;40967;52.070;8.596;2022-09-21T00:19:44;1.60;;;0.70;;
55069;SDS011;40967;52.070;8.596;2022-09-21T00:22:20;1.15;;;0.57;;
55069;SDS011;40967;52.070;8.596;2022-09-21T00:25:00;1.20;;;0.60;;
55069;SDS011;40967;52.070;8.596;2022-09-21T00:27:34;1.23;;;0.60;;
55069;SDS011;40967;52.070;8.596;2022-09-21T00:30:11;0.90;;;0.50;;
55069;SDS011;40967;52.070;8.596;2022-09-21T00:32:48;0.70;;;0.47;;
55069;SDS011;40967;52.070;8.596;2022-09-21T00:35:29;0.95;;;0.50;;
55069;SDS011;40967;52.070;8.596;2022-09-21T00:38:47;1.08;;;0.50;;
55069;SDS011;40967;52.070;8.596;2022-09-21T00:40:59;1.40;;;0.52;;
55069;SDS011;40967;52.070;8.596;2022-09-21T00:47:00;1.00;;;0.50;;
55069;SDS011;40967;52.070;8.596;2022-09-21T00:49:34;1.05;;;0.50;;
55069;SDS011;40967;52.070;8.596;2022-09-21T00:52:11;1.02;;;0.50;;
55069;SDS011;40967;52.070;8.596;2022-09-21T00:54:57;0.97;;;0.50;;
55069;SDS011;40967;52.070;8.596;2022-09-21T00:58:12;0.95;;;0.43;;
55069;SDS011;40967;52.070;8.596;2022-09-21T01:00:55;0.73;;;0.50;;
55069;SDS011;40967;52.070;8.596;2022-09-21T01:03:31;1.00;;;0.50;;
55069;SDS011;40967;52.070;8.596;2022-09-21T01:06:21;1.10;;;0.60;;
55069;SDS011;40967;52.070;8.596;2022-09-21T01:08:55;0.60;;;0.40;;
55069;SDS011;40967;52.070;8.596;2022-09-21T01:11:36;1.20;;;0.50;;
55069;SDS011;40967;52.070;8.596;2022-09-21T01:29:21;1.10;;;0.50;;
55069;SDS011;40967;52.070;8.596;2022-09-21T01:32:14;0.80;;;0.50;;
55069;SDS011;40967;52.070;8.596;2022-09-21T01:35:07;1.02;;;0.50;;
55069;SDS011;40967;52.070;8.596;2022-09-21T01:37:38;0.77;;;0.50;;
55069;SDS011;40967;52.070;8.596;2022-09-21T01:40:09;0.98;;;0.43;;
55069;SDS011;40967;52.070;8.596;2022-09-21T01:43:02;0.70;;;0.50;;
55069;SDS011;40967;52.070;8.596;2022-09-21T01:46:02;0.88;;;0.50;;
55069;SDS011;40967;52.070;8.596;2022-09-21T01:48:41;1.45;;;0.80;;
55069;SDS011;40967;52.070;8.596;2022-09-21T01:51:14;1.00;;;0.50;;
55069;SDS011;40967;52.070;8.596;2022-09-21T01:56:23;0.73;;;0.47;;
55069;SDS011;40967;52.070;8.596;2022-09-21T02:02:15;0.68;;;0.40;;
55069;SDS011;40967;52.070;8.596;2022-09-21T02:04:41;0.80;;;0.40;;
55069;SDS011;40967;52.070;8.596;2022-09-21T02:07:07;1.20;;;0.60;;
55069;SDS011;40967;52.070;8.596;2022-09-21T02:09:34;1.57;;;0.70;;
55069;SDS011;40967;52.070;8.596;2022-09-21T02:12:01;1.67;;;0.80;;
55069;SDS011;40967;52.070;8.596;2022-09-21T02:14:26;0.97;;;0.50;;
55069;SDS011;40967;52.070;8.596;2022-09-21T02:17:11;1.43;;;0.70;;
55069;SDS011;40967;52.070;8.596;2022-09-21T02:20:06;0.90;;;0.50;;
55069;SDS011;40967;52.070;8.596;2022-09-21T02:25:27;1.20;;;0.70;;
55069;SDS011;40967;52.070;8.596;2022-09-21T02:30:37;1.13;;;0.50;;
55069;SDS011;40967;52.070;8.596;2022-09-21T02:33:12;1.13;;;0.60;;
55069;SDS011;40967;52.070;8.596;2022-09-21T02:43:32;0.80;;;0.50;;
55069;SDS011;40967;52.070;8.596;2022-09-21T02:49:15;0.55;;;0.40;;
55069;SDS011;40967;52.070;8.596;2022-09-21T02:51:46;0.65;;;0.40;;
55069;SDS011;40967;52.070;8.596;2022-09-21T02:54:16;0.90;;;0.45;;
55069;SDS011;40967;52.070;8.596;2022-09-21T02:56:49;1.45;;;0.57;;
55069;SDS011;40967;52.070;8.596;2022-09-21T02:59:15;0.95;;;0.50;;
55069;SDS011;40967;52.070;8.596;2022-09-21T03:01:41;1.00;;;0.60;;
55069;SDS011;40967;52.070;8.596;2022-09-21T03:04:07;1.52;;;0.60;;
55069;SDS011;40967;52.070;8.596;2022-09-21T03:06:32;0.90;;;0.50;;
55069;SDS011;40967;52.070;8.596;2022-09-21T03:08:58;0.85;;;0.50;;
55069;SDS011;40967;52.070;8.596;2022-09-21T03:11:24;1.33;;;0.50;;
55069;SDS011;40967;52.070;8.596;2022-09-21T03:13:50;0.63;;;0.40;;
55069;SDS011;40967;52.070;8.596;2022-09-21T03:16:15;0.93;;;0.50;;
55069;SDS011;40967;52.070;8.596;2022-09-21T03:18:42;1.00;;;0.60;;
55069;SDS011;40967;52.070;8.596;2022-09-21T03:21:09;1.13;;;0.50;;
55069;SDS011;40967;52.070;8.596;2022-09-21T03:23:39;0.85;;;0.50;;
55069;SDS011;40967;52.070;8.596;2022-09-21T03:26:04;1.30;;;0.50;;
55069;SDS011;40967;52.070;8.596;2022-09-21T03:28:30;0.77;;;0.50;;
55069;SDS011;40967;52.070;8.596;2022-09-21T03:30:55;0.60;;;0.40;;
55069;SDS011;40967;52.070;8.596;2022-09-21T03:33:21;1.03;;;0.50;;
55069;SDS011;40967;52.070;8.596;2022-09-21T03:35:49;0.77;;;0.50;;
55069;SDS011;40967;52.070;8.596;2022-09-21T03:38:16;0.93;;;0.50;;
55069;SDS011;40967;52.070;8.596;2022-09-21T03:44:14;1.02;;;0.50;;
55069;SDS011;40967;52.070;8.596;2022-09-21T03:46:44;0.75;;;0.50;;
55069;SDS011;40967;52.070;8.596;2022-09-21T03:49:19;1.20;;;0.70;;
55069;SDS011;40967;52.070;8.596;2022-09-21T03:52:17;1.27;;;0.50;;
55069;SDS011;40967;52.070;8.596;2022-09-21T03:58:31;1.10;;;0.50;;
55069;SDS011;40967;52.070;8.596;2022-09-21T04:01:00;1.10;;;0.60;;
55069;SDS011;40967;52.070;8.596;2022-09-21T04:03:31;1.27;;;0.60;;
55069;SDS011;40967;52.070;8.596;2022-09-21T04:05:57;0.85;;;0.50;;
55069;SDS011;40967;52.070;8.596;2022-09-21T04:08:22;1.13;;;0.60;;
55069;SDS011;40967;52.070;8.596;2022-09-21T04:10:51;0.90;;;0.60;;
55069;SDS011;40967;52.070;8.596;2022-09-21T04:13:16;0.90;;;0.52;;
55069;SDS011;40967;52.070;8.596;2022-09-21T04:15:42;1.20;;;0.60;;
55069;SDS011;40967;52.070;8.596;2022-09-21T04:18:09;1.20;;;0.60;;
55069;SDS011;40967;52.070;8.596;2022-09-21T04:20:36;1.53;;;0.60;;
55069;SDS011;40967;52.070;8.596;2022-09-21T04:23:01;1.80;;;0.73;;
55069;SDS011;40967;52.070;8.596;2022-09-21T04:25:27;1.27;;;0.60;;
55069;SDS011;40967;52.070;8.596;2022-09-21T04:27:56;1.15;;;0.63;;
55069;SDS011;40967;52.070;8.596;2022-09-21T04:30:22;1.33;;;0.63;;
55069;SDS011;40967;52.070;8.596;2022-09-21T04:32:48;1.70;;;0.70;;
55069;SDS011;40967;52.070;8.596;2022-09-21T04:35:13;1.17;;;0.68;;
55069;SDS011;40967;52.070;8.596;2022-09-21T04:37:39;1.90;;;0.80;;
55069;SDS011;40967;52.070;8.596;2022-09-21T04:40:05;1.30;;;0.70;;
55069;SDS011;40967;52.070;8.596;2022-09-21T04:42:35;1.23;;;0.70;;
55069;SDS011;40967;52.070;8.596;2022-09-21T04:45:02;1.30;;;0.70;;
55069;SDS011;40967;52.070;8.596;2022-09-21T04:47:34;1.30;;;0.65;;
55069;SDS011;40967;52.070;8.596;2022-09-21T04:49:59;1.30;;;0.60;;
55069;SDS011;40967;52.070;8.596;2022-09-21T04:52:25;1.60;;;0.70;;
55069;SDS011;40967;52.070;8.596;2022-09-21T04:54:54;1.73;;;0.80;;
55069;SDS011;40967;52.070;8.596;2022-09-21T04:57:20;0.93;;;0.60;;
55069;SDS011;40967;52.070;8.596;2022-09-21T04:59:53;1.08;;;0.65;;
55069;SDS011;40967;52.070;8.596;2022-09-21T05:02:23;1.20;;;0.70;;
55069;SDS011;40967;52.070;8.596;2022-09-21T05:04:51;1.30;;;0.65;;
55069;SDS011;40967;52.070;8.596;2022-09-21T05:07:17;1.27;;;0.67;;
55069;SDS011;40967;52.070;8.596;2022-09-21T05:09:44;0.93;;;0.50;;
55069;SDS011;40967;52.070;8.596;2022-09-21T05:12:32;1.25;;;0.60;;
55069;SDS011;40967;52.070;8.596;2022-09-21T05:14:59;1.50;;;0.70;;
55069;SDS011;40967;52.070;8.596;2022-09-21T05:17:25;1.73;;;0.80;;
55069;SDS011;40967;52.070;8.596;2022-09-21T05:19:51;1.10;;;0.53;;
55069;SDS011;40967;52.070;8.596;2022-09-21T05:22:19;1.48;;;0.73;;
55069;SDS011;40967;52.070;8.596;2022-09-21T05:24:45;1.77;;;0.80;;
55069;SDS011;40967;52.070;8.596;2022-09-21T05:27:11;1.40;;;0.70;;
55069;SDS011;40967;52.070;8.596;2022-09-21T05:29:40;1.52;;;0.68;;
55069;SDS011;40967;52.070;8.596;2022-09-21T05:32:15;1.40;;;0.77;;
55069;SDS011;40967;52.070;8.596;2022-09-21T05:35:51;1.33;;;0.63;;
55069;SDS011;40967;52.070;8.596;2022-09-21T05:38:04;1.17;;;0.63;;
55069;SDS011;40967;52.070;8.596;2022-09-21T05:40:37;1.83;;;0.80;;
55069;SDS011;40967;52.070;8.596;2022-09-21T05:43:02;2.37;;;0.90;;
55069;SDS011;40967;52.070;8.596;2022-09-21T05:45:28;1.42;;;0.73;;
55069;SDS011;40967;52.070;8.596;2022-09-21T05:47:55;1.70;;;0.70;;
55069;SDS011;40967;52.070;8.596;2022-09-21T05:59:51;1.20;;;0.70;;
55069;SDS011;40967;52.070;8.596;2022-09-21T06:05:14;1.45;;;0.80;;
55069;SDS011;40967;52.070;8.596;2022-09-21T06:07:40;1.40;;;0.75;;
55069;SDS011;40967;52.070;8.596;2022-09-21T06:10:07;1.10;;;0.70;;
55069;SDS011;40967;52.070;8.596;2022-09-21T06:12:37;1.55;;;0.70;;
55069;SDS011;40967;52.070;8.596;2022-09-21T06:15:03;2.37;;;1.10;;
55069;SDS011;40967;52.070;8.596;2022-09-21T06:17:31;2.58;;;1.02;;
55069;SDS011;40967;52.070;8.596;2022-09-21T06:19:57;2.20;;;1.20;;
55069;SDS011;40967;52.070;8.596;2022-09-21T06:22:22;3.00;;;1.53;;
55069;SDS011;40967;52.070;8.596;2022-09-21T06:24:47;2.80;;;1.40;;
55069;SDS011;40967;52.070;8.596;2022-09-21T06:27:13;3.33;;;1.58;;
55069;SDS011;40967;52.070;8.596;2022-09-21T06:29:38;2.20;;;1.20;;
55069;SDS011;40967;52.070;8.596;2022-09-21T06:32:04;3.73;;;1.40;;
55069;SDS011;40967;52.070;8.596;2022-09-21T06:34:35;2.95;;;1.42;;
55069;SDS011;40967;52.070;8.596;2022-09-21T06:37:02;1.92;;;1.00;;
55069;SDS011;40967;52.070;8.596;2022-09-21T06:39:27;1.90;;;1.03;;
55069;SDS011;40967;52.070;8.596;2022-09-21T06:41:52;1.57;;;1.00;;
55069;SDS011;40967;52.070;8.596;2022-09-21T06:44:18;1.73;;;1.10;;
55069;SDS011;40967;52.070;8.596;2022-09-21T06:46:44;1.77;;;1.03;;
55069;SDS011;40967;52.070;8.596;2022-09-21T06:49:14;2.10;;;1.20;;
55069;SDS011;40967;52.070;8.596;2022-09-21T06:51:41;1.95;;;1.15;;
55069;SDS011;40967;52.070;8.596;2022-09-21T06:54:09;2.40;;;1.40;;
55069;SDS011;40967;52.070;8.596;2022-09-21T06:56:38;1.73;;;1.00;;
55069;SDS011;40967;52.070;8.596;2022-09-21T06:59:20;1.70;;;1.20;;
55069;SDS011;40967;52.070;8.596;2022-09-21T07:01:58;1.92;;;1.10;;
55069;SDS011;40967;52.070;8.596;2022-09-21T07:04:33;2.33;;;1.15;;
55069;SDS011;40967;52.070;8.596;2022-09-21T07:06:58;2.33;;;1.10;;
55069;SDS011;40967;52.070;8.596;2022-09-21T07:09:25;1.98;;;1.02;;
55069;SDS011;40967;52.070;8.596;2022-09-21T07:12:11;2.30;;;1.20;;
55069;SDS011;40967;52.070;8.596;2022-09-21T07:14:40;1.77;;;1.08;;
55069;SDS011;40967;52.070;8.596;2022-09-21T07:17:06;2.30;;;1.30;;
55069;SDS011;40967;52.070;8.596;2022-09-21T07:19:37;2.10;;;1.00;;
55069;SDS011;40967;52.070;8.596;2022-09-21T07:22:04;1.70;;;0.95;;
55069;SDS011;40967;52.070;8.596;2022-09-21T07:24:30;1.70;;;1.00;;
55069;SDS011;40967;52.070;8.596;2022-09-21T07:26:56;1.60;;;0.80;;
55069;SDS011;40967;52.070;8.596;2022-09-21T07:29:21;2.10;;;0.93;;
55069;SDS011;40967;52.070;8.596;2022-09-21T07:31:47;1.60;;;0.93;;
55069;SDS011;40967;52.070;8.596;2022-09-21T07:34:26;2.05;;;1.02;;
55069;SDS011;40967;52.070;8.596;2022-09-21T07:36:53;2.22;;;1.08;;
55069;SDS011;40967;52.070;8.596;2022-09-21T07:39:19;1.37;;;0.80;;
55069;SDS011;40967;52.070;8.596;2022-09-21T07:41:45;1.80;;;1.07;;
55069;SDS011;40967;52.070;8.596;2022-09-21T07:44:13;2.45;;;1.20;;
55069;SDS011;40967;52.070;8.596;2022-09-21T07:46:40;1.80;;;1.08;;
55069;SDS011;40967;52.070;8.596;2022-09-21T07:49:11;2.67;;;1.20;;
55069;SDS011;40967;52.070;8.596;2022-09-21T07:51:38;2.10;;;0.90;;
55069;SDS011;40967;52.070;8.596;2022-09-21T07:54:08;2.13;;;0.85;;
55069;SDS011;40967;52.070;8.596;2022-09-21T07:56:41;1.92;;;1.02;;
55069;SDS011;40967;52.070;8.596;2022-09-21T07:59:34;1.70;;;0.83;;
55069;SDS011;40967;52.070;8.596;2022-09-21T08:02:04;2.20;;;1.07;;
55069;SDS011;40967;52.070;8.596;2022-09-21T08:04:30;2.17;;;1.10;;
55069;SDS011;40967;52.070;8.596;2022-09-21T08:07:00;1.50;;;0.80;;
55069;SDS011;40967;52.070;8.596;2022-09-21T08:09:28;1.48;;;0.80;;
55069;SDS011;40967;52.070;8.596;2022-09-21T08:11:53;1.50;;;0.80;;
55069;SDS011;40967;52.070;8.596;2022-09-21T08:14:19;0.77;;;0.50;;
55069;SDS011;40967;52.070;8.596;2022-09-21T08:16:45;1.27;;;0.60;;
55069;SDS011;40967;52.070;8.596;2022-09-21T08:19:12;1.88;;;0.80;;
55069;SDS011;40967;52.070;8.596;2022-09-21T08:21:38;1.13;;;0.73;;
55069;SDS011;40967;52.070;8.596;2022-09-21T08:24:04;1.67;;;0.70;;
55069;SDS011;40967;52.070;8.596;2022-09-21T08:26:33;2.00;;;1.00;;
55069;SDS011;40967;52.070;8.596;2022-09-21T08:29:00;1.80;;;0.90;;
55069;SDS011;40967;52.070;8.596;2022-09-21T08:31:26;1.05;;;0.63;;
55069;SDS011;40967;52.070;8.596;2022-09-21T08:33:53;1.50;;;0.80;;
55069;SDS011;40967;52.070;8.596;2022-09-21T08:36:19;1.40;;;0.80;;
55069;SDS011;40967;52.070;8.596;2022-09-21T08:38:44;2.00;;;1.00;;
55069;SDS011;40967;52.070;8.596;2022-09-21T08:43:47;1.52;;;0.80;;
55069;SDS011;40967;52.070;8.596;2022-09-21T08:46:19;1.50;;;0.70;;
55069;SDS011;40967;52.070;8.596;2022-09-21T08:48:57;1.92;;;0.80;;
55069;SDS011;40967;52.070;8.596;2022-09-21T08:51:31;2.87;;;1.20;;
55069;SDS011;40967;52.070;8.596;2022-09-21T08:54:02;2.47;;;0.90;;
55069;SDS011;40967;52.070;8.596;2022-09-21T08:56:36;2.20;;;1.00;;
55069;SDS011;40967;52.070;8.596;2022-09-21T08:59:01;1.53;;;0.80;;
55069;SDS011;40967;52.070;8.596;2022-09-21T09:01:42;2.03;;;1.00;;
55069;SDS011;40967;52.070;8.596;2022-09-21T09:06:58;2.15;;;0.82;;
55069;SDS011;40967;52.070;8.596;2022-09-21T09:09:41;1.37;;;0.67;;
55069;SDS011;40967;52.070;8.596;2022-09-21T09:25:40;1.55;;;0.68;;
55069;SDS011;40967;52.070;8.596;2022-09-21T09:30:54;1.85;;;0.75;;
55069;SDS011;40967;52.070;8.596;2022-09-21T09:33:25;1.25;;;0.50;;
55069;SDS011;40967;52.070;8.596;2022-09-21T09:36:02;1.10;;;0.60;;
55069;SDS011;40967;52.070;8.596;2022-09-21T09:41:23;0.95;;;0.40;;
55069;SDS011;40967;52.070;8.596;2022-09-21T09:50:35;0.80;;;0.32;;
55069;SDS011;40967;52.070;8.596;2022-09-21T09:53:03;1.10;;;0.50;;
55069;SDS011;40967;52.070;8.596;2022-09-21T09:55:34;0.90;;;0.30;;
55069;SDS011;40967;52.070;8.596;2022-09-21T09:58:02;0.55;;;0.30;;
55069;SDS011;40967;52.070;8.596;2022-09-21T10:00:28;0.50;;;0.30;;
55069;SDS011;40967;52.070;8.596;2022-09-21T10:02:55;1.13;;;0.30;;
55069;SDS011;40967;52.070;8.596;2022-09-21T10:07:54;0.55;;;0.20;;
55069;SDS011;40967;52.070;8.596;2022-09-21T10:10:36;0.70;;;0.20;;
55069;SDS011;40967;52.070;8.596;2022-09-21T10:15:39;0.63;;;0.30;;
55069;SDS011;40967;52.070;8.596;2022-09-21T10:18:21;0.80;;;0.30;;
55069;SDS011;40967;52.070;8.596;2022-09-21T10:20:54;1.42;;;0.43;;
55069;SDS011;40967;52.070;8.596;2022-09-21T10:23:41;1.45;;;0.40;;
55069;SDS011;40967;52.070;8.596;2022-09-21T10:26:12;1.42;;;0.43;;
55069;SDS011;40967;52.070;8.596;2022-09-21T10:28:58;0.83;;;0.40;;
55069;SDS011;40967;52.070;8.596;2022-09-21T10:31:26;0.70;;;0.20;;
55069;SDS011;40967;52.070;8.596;2022-09-21T10:34:09;1.55;;;0.40;;
55069;SDS011;40967;52.070;8.596;2022-09-21T10:36:38;0.90;;;0.30;;
55069;SDS011;40967;52.070;8.596;2022-09-21T10:42:11;1.00;;;0.20;;
55069;SDS011;40967;52.070;8.596;2022-09-21T10:44:51;1.13;;;0.30;;
55069;SDS011;40967;52.070;8.596;2022-09-21T10:49:58;1.00;;;0.33;;
55069;SDS011;40967;52.070;8.596;2022-09-21T10:52:36;1.33;;;0.38;;
55069;SDS011;40967;52.070;8.596;2022-09-21T10:55:04;0.77;;;0.30;;
55069;SDS011;40967;52.070;8.596;2022-09-21T10:57:34;0.38;;;0.17;;
55069;SDS011;40967;52.070;8.596;2022-09-21T11:06:21;0.60;;;0.20;;
55069;SDS011;40967;52.070;8.596;2022-09-21T11:14:15;0.35;;;0.15;;
55069;SDS011;40967;52.070;8.596;2022-09-21T11:22:57;0.47;;;0.10;;
55069;SDS011;40967;52.070;8.596;2022-09-21T11:26:07;0.73;;;0.20;;
55069;SDS011;40967;52.070;8.596;2022-09-21T11:28:48;0.95;;;0.20;;
55069;SDS011;40967;52.070;8.596;2022-09-21T11:55:20;0.32;;;0.20;;
55069;SDS011;40967;52.070;8.596;2022-09-21T12:01:12;0.90;;;0.20;;
55069;SDS011;40967;52.070;8.596;2022-09-21T12:09:43;0.52;;;0.20;;
55069;SDS011;40967;52.070;8.596;2022-09-21T12:12:26;0.60;;;0.20;;
55069;SDS011;40967;52.070;8.596;2022-09-21T12:15:22;0.68;;;0.28;;
55069;SDS011;40967;52.070;8.596;2022-09-21T12:21:00;0.10;;;0.00;;
55069;SDS011;40967;52.070;8.596;2022-09-21T12:23:43;0.17;;;0.10;;
55069;SDS011;40967;52.070;8.596;2022-09-21T12:26:35;0.20;;;0.10;;
55069;SDS011;40967;52.070;8.596;2022-09-21T12:32:02;0.47;;;0.17;;
55069;SDS011;40967;52.070;8.596;2022-09-21T12:34:50;1.27;;;0.30;;
55069;SDS011;40967;52.070;8.596;2022-09-21T12:37:41;0.75;;;0.20;;
55069;SDS011;40967;52.070;8.596;2022-09-21T12:40:19;0.88;;;0.30;;
55069;SDS011;40967;52.070;8.596;2022-09-21T12:46:04;0.70;;;0.13;;
55069;SDS011;40967;52.070;8.596;2022-09-21T12:48:34;0.30;;;0.10;;
55069;SDS011;40967;52.070;8.596;2022-09-21T12:54:04;0.35;;;0.05;;
55069;SDS011;40967;52.070;8.596;2022-09-21T13:02:26;0.88;;;0.10;;
55069;SDS011;40967;52.070;8.596;2022-09-21T13:05:03;0.40;;;0.10;;
55069;SDS011;40967;52.070;8.596;2022-09-21T13:08:13;1.02;;;0.28;;
55069;SDS011;40967;52.070;8.596;2022-09-21T13:10:56;0.77;;;0.30;;
55069;SDS011;40967;52.070;8.596;2022-09-21T13:15:57;0.90;;;0.20;;
55069;SDS011;40967;52.070;8.596;2022-09-21T13:21:16;1.10;;;0.30;;
55069;SDS011;40967;52.070;8.596;2022-09-21T13:23:54;0.50;;;0.20;;
55069;SDS011;40967;52.070;8.596;2022-09-21T13:29:28;0.60;;;0.20;;
55069;SDS011;40967;52.070;8.596;2022-09-21T13:32:01;0.30;;;0.13;;
55069;SDS011;40967;52.070;8.596;2022-09-21T13:47:00;0.60;;;0.20;;
55069;SDS011;40967;52.070;8.596;2022-09-21T13:57:34;0.70;;;0.30;;
55069;SDS011;40967;52.070;8.596;2022-09-21T14:00:49;1.00;;;0.30;;
55069;SDS011;40967;52.070;8.596;2022-09-21T14:02:56;0.85;;;0.20;;
55069;SDS011;40967;52.070;8.596;2022-09-21T14:10:44;0.60;;;0.20;;
55069;SDS011;40967;52.070;8.596;2022-09-21T14:18:51;0.10;;;0.00;;
55069;SDS011;40967;52.070;8.596;2022-09-21T14:21:18;0.10;;;0.10;;
55069;SDS011;40967;52.070;8.596;2022-09-21T14:24:07;0.22;;;0.10;;
55069;SDS011;40967;52.070;8.596;2022-09-21T14:27:00;0.40;;;0.10;;
55069;SDS011;40967;52.070;8.596;2022-09-21T14:29:46;0.70;;;0.20;;
55069;SDS011;40967;52.070;8.596;2022-09-21T14:32:21;1.05;;;0.22;;
55069;SDS011;40967;52.070;8.596;2022-09-21T14:35:12;1.25;;;0.40;;
55069;SDS011;40967;52.070;8.596;2022-09-21T14:38:00;0.85;;;0.30;;
55069;SDS011;40967;52.070;8.596;2022-09-21T14:40:51;0.68;;;0.20;;
55069;SDS011;40967;52.070;8.596;2022-09-21T14:43:23;0.90;;;0.30;;
55069;SDS011;40967;52.070;8.596;2022-09-21T14:48:37;0.90;;;0.20;;
55069;SDS011;40967;52.070;8.596;2022-09-21T14:54:34;0.30;;;0.10;;
55069;SDS011;40967;52.070;8.596;2022-09-21T15:00:13;0.98;;;0.15;;
55069;SDS011;40967;52.070;8.596;2022-09-21T15:05:35;0.90;;;0.30;;
55069;SDS011;40967;52.070;8.596;2022-09-21T15:16:46;1.33;;;0.30;;
55069;SDS011;40967;52.070;8.596;2022-09-21T15:21:43;0.63;;;0.17;;
55069;SDS011;40967;52.070;8.596;2022-09-21T15:24:15;0.50;;;0.20;;
55069;SDS011;40967;52.070;8.596;2022-09-21T15:26:43;1.60;;;0.30;;
55069;SDS011;40967;52.070;8.596;2022-09-21T15:29:17;1.60;;;0.40;;
55069;SDS011;40967;52.070;8.596;2022-09-21T15:32:34;1.48;;;0.40;;
55069;SDS011;40967;52.070;8.596;2022-09-21T15:35:03;0.77;;;0.30;;
55069;SDS011;40967;52.070;8.596;2022-09-21T15:37:34;0.52;;;0.20;;
55069;SDS011;40967;52.070;8.596;2022-09-21T15:40:03;0.13;;;0.10;;
55069;SDS011;40967;52.070;8.596;2022-09-21T15:42:32;0.50;;;0.10;;
55069;SDS011;40967;52.070;8.596;2022-09-21T15:45:12;0.65;;;0.25;;
55069;SDS011;40967;52.070;8.596;2022-09-21T15:47:39;0.32;;;0.10;;
55069;SDS011;40967;52.070;8.596;2022-09-21T15:50:10;0.50;;;0.25;;
55069;SDS011;40967;52.070;8.596;2022-09-21T15:52:46;0.38;;;0.20;;
55069;SDS011;40967;52.070;8.596;2022-09-21T15:55:19;0.10;;;0.10;;
55069;SDS011;40967;52.070;8.596;2022-09-21T15:57:50;0.70;;;0.20;;
55069;SDS011;40967;52.070;8.596;2022-09-21T16:00:26;1.30;;;0.32;;
55069;SDS011;40967;52.070;8.596;2022-09-21T16:02:58;0.67;;;0.20;;
55069;SDS011;40967;52.070;8.596;2022-09-21T16:05:42;0.77;;;0.20;;
55069;SDS011;40967;52.070;8.596;2022-09-21T16:08:25;0.55;;;0.20;;
55069;SDS011;40967;52.070;8.596;2022-09-21T16:10:52;0.80;;;0.20;;
55069;SDS011;40967;52.070;8.596;2022-09-21T16:13:41;0.50;;;0.10;;
55069;SDS011;40967;52.070;8.596;2022-09-21T16:16:27;1.10;;;0.30;;
55069;SDS011;40967;52.070;8.596;2022-09-21T16:19:00;1.30;;;0.30;;
55069;SDS011;40967;52.070;8.596;2022-09-21T16:22:02;0.73;;;0.28;;
55069;SDS011;40967;52.070;8.596;2022-09-21T16:24:35;0.20;;;0.13;;
55069;SDS011;40967;52.070;8.596;2022-09-21T16:27:12;0.30;;;0.15;;
55069;SDS011;40967;52.070;8.596;2022-09-21T16:29:41;0.30;;;0.13;;
55069;SDS011;40967;52.070;8.596;2022-09-21T16:34:44;0.65;;;0.30;;
55069;SDS011;40967;52.070;8.596;2022-09-21T16:39:53;0.67;;;0.30;;
55069;SDS011;40967;52.070;8.596;2022-09-21T16:42:19;0.13;;;0.00;;
55069;SDS011;40967;52.070;8.596;2022-09-21T16:44:46;0.05;;;0.05;;
55069;SDS011;40967;52.070;8.596;2022-09-21T16:47:13;0.15;;;0.10;;
55069;SDS011;40967;52.070;8.596;2022-09-21T16:49:42;0.40;;;0.20;;
55069;SDS011;40967;52.070;8.596;2022-09-21T16:52:07;0.43;;;0.30;;
55069;SDS011;40967;52.070;8.596;2022-09-21T16:54:33;0.30;;;0.10;;
55069;SDS011;40967;52.070;8.596;2022-09-21T16:57:02;0.20;;;0.08;;
55069;SDS011;40967;52.070;8.596;2022-09-21T16:59:29;0.35;;;0.10;;
55069;SDS011;40967;52.070;8.596;2022-09-21T17:01:57;0.20;;;0.08;;
55069;SDS011;40967;52.070;8.596;2022-09-21T17:04:24;0.20;;;0.10;;
55069;SDS011;40967;52.070;8.596;2022-09-21T17:06:51;0.93;;;0.10;;
55069;SDS011;40967;52.070;8.596;2022-09-21T17:09:25;0.10;;;0.10;;
55069;SDS011;40967;52.070;8.596;2022-09-21T17:12:03;0.60;;;0.13;;
55069;SDS011;40967;52.070;8.596;2022-09-21T17:14:32;0.20;;;0.10;;
55069;SDS011;40967;52.070;8.596;2022-09-21T17:17:03;0.28;;;0.10;;
55069;SDS011;40967;52.070;8.596;2022-09-21T17:19:35;0.20;;;0.10;;
55069;SDS011;40967;52.070;8.596;2022-09-21T17:22:03;0.20;;;0.10;;
55069;SDS011;40967;52.070;8.596;2022-09-21T17:24:30;0.15;;;0.00;;
55069;SDS011;40967;52.070;8.596;2022-09-21T17:26:56;0.30;;;0.17;;
55069;SDS011;40967;52.070;8.596;2022-09-21T17:29:23;0.10;;;0.00;;
55069;SDS011;40967;52.070;8.596;2022-09-21T17:31:52;0.10;;;0.10;;
55069;SDS011;40967;52.070;8.596;2022-09-21T17:34:19;0.10;;;0.10;;
55069;SDS011;40967;52.070;8.596;2022-09-21T17:36:48;0.10;;;0.00;;
55069;SDS011;40967;52.070;8.596;2022-09-21T17:39:14;0.20;;;0.10;;
55069;SDS011;40967;52.070;8.596;2022-09-21T17:47:24;0.20;;;0.10;;
55069;SDS011;40967;52.070;8.596;2022-09-21T17:52:37;0.28;;;0.10;;
55069;SDS011;40967;52.070;8.596;2022-09-21T17:55:22;0.50;;;0.10;;
55069;SDS011;40967;52.070;8.596;2022-09-21T18:00:52;0.00;;;0.00;;
55069;SDS011;40967;52.070;8.596;2022-09-21T18:03:39;0.10;;;0.10;;
55069;SDS011;40967;52.070;8.596;2022-09-21T18:06:07;0.20;;;0.10;;
55069;SDS011;40967;52.070;8.596;2022-09-21T18:08:34;0.22;;;0.20;;
55069;SDS011;40967;52.070;8.596;2022-09-21T18:16:04;0.43;;;0.30;;
55069;SDS011;40967;52.070;8.596;2022-09-21T18:21:16;0.73;;;0.30;;
55069;SDS011;40967;52.070;8.596;2022-09-21T18:26:12;0.70;;;0.40;;
55069;SDS011;40967;52.070;8.596;2022-09-21T18:28:46;1.23;;;0.50;;
55069;SDS011;40967;52.070;8.596;2022-09-21T18:34:09;0.80;;;0.30;;
55069;SDS011;40967;52.070;8.596;2022-09-21T18:39:18;0.75;;;0.38;;
55069;SDS011;40967;52.070;8.596;2022-09-21T18:44:45;0.43;;;0.20;;
55069;SDS011;40967;52.070;8.596;2022-09-21T18:52:29;0.85;;;0.30;;
55069;SDS011;40967;52.070;8.596;2022-09-21T18:57:52;0.98;;;0.25;;
55069;SDS011;40967;52.070;8.596;2022-09-21T19:00:21;0.45;;;0.28;;
55069;SDS011;40967;52.070;8.596;2022-09-21T19:02:47;0.52;;;0.30;;
55069;SDS011;40967;52.070;8.596;2022-09-21T19:05:14;1.02;;;0.30;;
55069;SDS011;40967;52.070;8.596;2022-09-21T19:10:34;1.00;;;0.45;;
55069;SDS011;40967;52.070;8.596;2022-09-21T19:37:42;1.15;;;0.60;;
55069;SDS011;40967;52.070;8.596;2022-09-21T19:40:08;1.27;;;0.60;;
55069;SDS011;40967;52.070;8.596;2022-09-21T19:42:38;1.10;;;0.60;;
55069;SDS011;40967;52.070;8.596;2022-09-21T19:45:27;1.33;;;0.60;;
55069;SDS011;40967;52.070;8.596;2022-09-21T19:48:03;1.00;;;0.50;;
55069;SDS011;40967;52.070;8.596;2022-09-21T19:50:39;1.10;;;0.60;;
55069;SDS011;40967;52.070;8.596;2022-09-21T19:53:10;1.15;;;0.70;;
55069;SDS011;40967;52.070;8.596;2022-09-21T19:55:55;2.08;;;0.70;;
55069;SDS011;40967;52.070;8.596;2022-09-21T19:58:42;1.38;;;0.70;;
55069;SDS011;40967;52.070;8.596;2022-09-21T20:01:26;1.20;;;0.65;;
55069;SDS011;40967;52.070;8.596;2022-09-21T20:03:52;1.75;;;0.90;;
55069;SDS011;40967;52.070;8.596;2022-09-21T20:17:07;2.60;;;1.00;;
55069;SDS011;40967;52.070;8.596;2022-09-21T20:22:36;1.48;;;0.73;;
55069;SDS011;40967;52.070;8.596;2022-09-21T20:30:04;1.60;;;0.90;;
55069;SDS011;40967;52.070;8.596;2022-09-21T20:32:33;2.53;;;0.95;;
55069;SDS011;40967;52.070;8.596;2022-09-21T20:35:25;1.70;;;0.90;;
55069;SDS011;40967;52.070;8.596;2022-09-21T20:37:50;2.63;;;1.23;;
55069;SDS011;40967;52.070;8.596;2022-09-21T20:40:16;2.58;;;1.20;;
55069;SDS011;40967;52.070;8.596;2022-09-21T20:42:44;2.95;;;1.20;;
55069;SDS011;40967;52.070;8.596;2022-09-21T20:45:11;2.40;;;1.00;;